LGSA/CHQ METAR and TAF weather

Enter ICAO airport designator
Station Type Date Time Source
LGSA METAR 2021/09/28 17:20 UTC NOAA

LGSA 281720Z 00000KT CAVOK 23/19 Q1014


Station Type Date Time Source
LGSA Decoded METAR 2021/09/28 17:20 UTC NOAA

Souda Airport , Greece (LGSA) 35-29N 024-07E 151M
Sep 28, 2021 - 01:20 PM EDT / 2021.09.28 1720 UTC
Wind: Calm:0
Visibility: greater than 7 mile(s):0
Temperature: 73 F (23 C)
Dew Point: 66 F (19 C)
Relative Humidity: 78%
Pressure (altimeter): 29.94 in. Hg (1014 hPa)
ob: LGSA 281720Z 00000KT CAVOK 23/19 Q1014
cycle: 17

Station Type Date Time Source
LGSA TAF 2021/09/28 18:12 UTC NOAA

TAF LGSA 281700Z 2818/2918 VRB05KT 9999 FEW020
BECMG 2904/2906 02010KT

Example: see airport list